createdAt,value
2024-03-24T00:00:16.762Z,3.10
2024-03-24T00:01:16.758Z,3.13
2024-03-24T00:02:17.563Z,3.13
2024-03-24T00:03:16.741Z,3.11
2024-03-24T00:04:16.715Z,3.13
2024-03-24T00:05:16.702Z,3.14
2024-03-24T00:06:16.719Z,3.13
2024-03-24T00:07:16.700Z,3.11
2024-03-24T00:08:16.688Z,3.10
2024-03-24T00:09:16.672Z,3.06
2024-03-24T00:10:16.666Z,3.08
2024-03-24T00:11:16.655Z,3.06
2024-03-24T00:12:16.631Z,3.06
2024-03-24T00:13:16.631Z,3.05
2024-03-24T00:14:16.618Z,3.06
2024-03-24T00:15:16.612Z,3.05
2024-03-24T00:16:16.600Z,3.03
2024-03-24T00:17:16.606Z,3.02
2024-03-24T00:18:16.576Z,3.02
2024-03-24T00:19:16.590Z,3.00
2024-03-24T00:20:16.759Z,3.05
2024-03-24T00:21:16.580Z,3.03
2024-03-24T00:22:16.535Z,3.06
2024-03-24T00:23:16.544Z,3.10
2024-03-24T00:24:16.519Z,3.08
2024-03-24T00:25:16.518Z,3.08
2024-03-24T00:26:16.492Z,3.11
2024-03-24T00:27:17.170Z,3.10
2024-03-24T00:28:16.485Z,3.17
2024-03-24T00:29:16.470Z,3.21
2024-03-24T00:30:16.792Z,3.24
2024-03-24T00:31:16.582Z,3.26
2024-03-24T00:32:16.437Z,3.23
2024-03-24T00:33:16.432Z,3.26
2024-03-24T00:34:16.422Z,3.26
2024-03-24T00:35:17.215Z,3.32
2024-03-24T00:36:16.405Z,3.39
2024-03-24T00:37:16.401Z,3.42
2024-03-24T00:38:16.370Z,3.43
2024-03-24T00:39:16.363Z,3.43
2024-03-24T00:40:16.365Z,3.47
2024-03-24T00:41:16.382Z,3.48
2024-03-24T00:42:16.339Z,3.54
2024-03-24T00:43:16.322Z,3.76
2024-03-24T00:44:16.334Z,3.88
2024-03-24T00:45:16.311Z,3.91
2024-03-24T00:46:16.310Z,3.90
2024-03-24T00:47:16.293Z,3.88
2024-03-24T00:48:17.098Z,3.86
2024-03-24T00:49:16.346Z,3.88
2024-03-24T00:50:16.253Z,3.87
2024-03-24T00:51:16.244Z,3.88
2024-03-24T00:52:16.218Z,3.87
2024-03-24T00:53:16.231Z,3.79
2024-03-24T00:54:16.209Z,3.78
2024-03-24T00:55:16.201Z,3.76
2024-03-24T00:56:16.195Z,3.75
2024-03-24T00:57:16.188Z,3.75
2024-03-24T00:58:16.164Z,3.75
2024-03-24T00:59:16.160Z,3.72
2024-03-24T01:00:16.151Z,3.72
2024-03-24T01:01:16.142Z,3.68
2024-03-24T01:02:16.121Z,3.66
2024-03-24T01:03:16.126Z,3.62
2024-03-24T01:04:16.098Z,3.62
2024-03-24T01:05:16.103Z,3.58
2024-03-24T01:06:16.077Z,3.61
2024-03-24T01:07:16.081Z,3.61
2024-03-24T01:08:16.074Z,3.60
2024-03-24T01:09:16.051Z,3.62
2024-03-24T01:10:16.052Z,3.62
2024-03-24T01:11:16.141Z,3.66
2024-03-24T01:12:16.013Z,3.65
2024-03-24T01:13:16.013Z,3.65
2024-03-24T01:14:16.007Z,3.66
2024-03-24T01:15:15.993Z,3.69
2024-03-24T01:16:15.967Z,3.69
2024-03-24T01:17:15.984Z,3.68
2024-03-24T01:18:15.966Z,3.65
2024-03-24T01:19:15.945Z,3.68
2024-03-24T01:20:15.949Z,3.68
2024-03-24T01:21:15.929Z,3.69
2024-03-24T01:22:15.918Z,3.69
2024-03-24T01:23:15.918Z,3.69
2024-03-24T01:24:16.700Z,3.69
2024-03-24T01:25:15.889Z,3.73
2024-03-24T01:26:15.876Z,3.75
2024-03-24T01:27:15.865Z,3.75
2024-03-24T01:28:15.850Z,3.76
2024-03-24T01:29:15.860Z,3.76
2024-03-24T01:30:15.824Z,3.75
2024-03-24T01:31:15.814Z,3.75
2024-03-24T01:32:15.810Z,3.76
2024-03-24T01:33:15.804Z,3.79
2024-03-24T01:34:15.791Z,3.80
2024-03-24T01:35:15.796Z,3.83
2024-03-24T01:36:15.762Z,3.83
2024-03-24T01:37:15.759Z,3.79
2024-03-24T01:38:15.748Z,3.83
2024-03-24T01:39:15.746Z,3.88
2024-03-24T01:40:15.724Z,4.04
2024-03-24T01:41:15.721Z,4.12
2024-03-24T01:42:15.700Z,4.12
2024-03-24T01:43:15.697Z,4.12
2024-03-24T01:44:15.675Z,4.12
2024-03-24T01:45:15.687Z,4.08
2024-03-24T01:46:15.662Z,4.06
2024-03-24T01:47:15.667Z,4.05
2024-03-24T01:48:15.636Z,4.05
2024-03-24T01:49:15.627Z,4.11
2024-03-24T01:50:15.620Z,4.12
2024-03-24T01:51:15.619Z,4.09
2024-03-24T01:52:15.605Z,4.06
2024-03-24T01:53:15.609Z,4.08
2024-03-24T01:54:15.652Z,4.05
2024-03-24T01:55:15.574Z,4.05
2024-03-24T01:56:15.564Z,4.02
2024-03-24T01:57:15.558Z,3.98
2024-03-24T01:58:16.362Z,3.97
2024-03-24T01:59:15.527Z,3.96
2024-03-24T02:00:15.512Z,3.93
2024-03-24T02:01:15.525Z,3.90
2024-03-24T02:02:16.036Z,3.93
2024-03-24T02:03:15.496Z,3.93
2024-03-24T02:04:15.470Z,3.91
2024-03-24T02:05:15.473Z,3.93
2024-03-24T02:06:15.444Z,3.90
2024-03-24T02:07:15.580Z,3.91
2024-03-24T02:08:15.430Z,3.88
2024-03-24T02:09:15.436Z,3.88
2024-03-24T02:10:15.412Z,3.86
2024-03-24T02:11:15.411Z,3.83
2024-03-24T02:12:15.398Z,3.84
2024-03-24T02:13:15.392Z,3.83
2024-03-24T02:14:15.390Z,3.83
2024-03-24T02:15:15.481Z,3.83
2024-03-24T02:16:15.347Z,3.86
2024-03-24T02:17:15.346Z,3.79
2024-03-24T02:18:15.347Z,3.80
2024-03-24T02:19:15.332Z,3.80
2024-03-24T02:20:15.349Z,3.80
2024-03-24T02:21:15.319Z,3.84
2024-03-24T02:22:15.286Z,3.84
2024-03-24T02:23:15.379Z,3.83
2024-03-24T02:24:15.557Z,3.86
2024-03-24T02:25:15.283Z,3.87
2024-03-24T02:26:15.239Z,3.87
2024-03-24T02:27:15.229Z,3.88
2024-03-24T02:28:15.220Z,3.86
2024-03-24T02:29:15.218Z,3.86
2024-03-24T02:30:15.204Z,3.87
2024-03-24T02:31:15.196Z,3.84
2024-03-24T02:32:15.181Z,3.86
2024-03-24T02:33:15.172Z,3.86
2024-03-24T02:34:15.166Z,3.87
2024-03-24T02:35:15.146Z,3.87
2024-03-24T02:36:15.131Z,3.88
2024-03-24T02:37:15.126Z,3.88
2024-03-24T02:38:15.117Z,3.84
2024-03-24T02:39:15.125Z,3.86
2024-03-24T02:40:15.183Z,3.84
2024-03-24T02:41:15.106Z,3.88
2024-03-24T02:42:15.062Z,3.86
2024-03-24T02:43:15.068Z,3.86
2024-03-24T02:44:15.052Z,3.86
2024-03-24T02:45:15.050Z,3.86
2024-03-24T02:46:15.035Z,3.84
2024-03-24T02:47:15.020Z,3.80
2024-03-24T02:48:15.008Z,3.83
2024-03-24T02:49:15.021Z,3.80
2024-03-24T02:50:15.005Z,3.80
2024-03-24T02:51:14.980Z,3.84
2024-03-24T02:52:14.962Z,3.87
2024-03-24T02:53:14.952Z,3.87
2024-03-24T02:54:14.947Z,3.88
2024-03-24T02:55:14.989Z,3.87
2024-03-24T02:56:14.939Z,3.88
2024-03-24T02:57:14.918Z,3.86
2024-03-24T02:58:14.936Z,3.87
2024-03-24T02:59:14.895Z,3.88
2024-03-24T03:00:14.896Z,3.87
2024-03-24T03:01:14.923Z,3.87
2024-03-24T03:02:14.870Z,3.86
2024-03-24T03:03:14.960Z,3.86
2024-03-24T03:04:14.863Z,3.87
2024-03-24T03:05:14.825Z,3.87
2024-03-24T03:06:14.832Z,3.86
2024-03-24T03:07:14.816Z,3.87
2024-03-24T03:08:14.816Z,3.90
2024-03-24T03:09:14.813Z,3.87
2024-03-24T03:10:14.822Z,3.87
2024-03-24T03:11:14.771Z,3.79
2024-03-24T03:12:14.764Z,3.80
2024-03-24T03:13:14.771Z,3.79
2024-03-24T03:14:14.874Z,3.80
2024-03-24T03:15:14.729Z,3.83
2024-03-24T03:16:14.777Z,3.80
2024-03-24T03:17:14.694Z,3.84
2024-03-24T03:18:14.699Z,3.83
2024-03-24T03:19:14.731Z,3.83
2024-03-24T03:20:14.722Z,3.83
2024-03-24T03:21:14.661Z,3.84
2024-03-24T03:22:14.684Z,3.80
2024-03-24T03:23:14.630Z,3.83
2024-03-24T03:24:14.636Z,3.79
2024-03-24T03:25:14.654Z,3.83
2024-03-24T03:26:14.617Z,3.78
2024-03-24T03:27:14.590Z,3.79
2024-03-24T03:28:15.490Z,3.78
2024-03-24T03:29:14.574Z,3.73
2024-03-24T03:30:14.572Z,3.75
2024-03-24T03:31:14.568Z,3.75
2024-03-24T03:32:14.567Z,3.75
2024-03-24T03:33:14.546Z,3.73
2024-03-24T03:34:14.552Z,3.76
2024-03-24T03:35:14.505Z,3.72
2024-03-24T03:36:14.512Z,3.72
2024-03-24T03:37:14.492Z,3.72
2024-03-24T03:38:14.489Z,3.73
2024-03-24T03:39:14.468Z,3.72
2024-03-24T03:40:14.478Z,3.70
2024-03-24T03:41:14.440Z,3.69
2024-03-24T03:42:14.437Z,3.68
2024-03-24T03:43:14.578Z,3.68
2024-03-24T03:44:14.441Z,3.65
2024-03-24T03:45:14.402Z,3.62
2024-03-24T03:46:14.405Z,3.66
2024-03-24T03:47:14.384Z,3.65
2024-03-24T03:48:14.376Z,3.65
2024-03-24T03:49:14.387Z,3.61
2024-03-24T03:50:14.391Z,3.61
2024-03-24T03:51:14.449Z,3.61
2024-03-24T03:52:14.340Z,3.62
2024-03-24T03:53:14.319Z,3.61
2024-03-24T03:54:14.335Z,3.60
2024-03-24T03:55:14.310Z,3.60
2024-03-24T03:56:14.312Z,3.58
2024-03-24T03:57:14.285Z,3.60
2024-03-24T03:58:14.296Z,3.60
2024-03-24T03:59:14.247Z,3.62
2024-03-24T04:00:14.263Z,3.65
2024-03-24T04:01:14.248Z,3.62
2024-03-24T04:02:14.263Z,3.65
2024-03-24T04:03:14.209Z,3.68
2024-03-24T04:04:14.226Z,3.66
2024-03-24T04:05:14.206Z,3.69
2024-03-24T04:06:14.182Z,3.70
2024-03-24T04:07:14.180Z,3.72
2024-03-24T04:08:14.160Z,3.72
2024-03-24T04:09:14.149Z,3.72
2024-03-24T04:10:14.174Z,3.73
2024-03-24T04:11:14.135Z,3.75
2024-03-24T04:12:14.130Z,3.76
2024-03-24T04:13:14.117Z,3.79
2024-03-24T04:14:14.924Z,3.78
2024-03-24T04:15:14.082Z,3.76
2024-03-24T04:16:14.104Z,3.79
2024-03-24T04:17:14.072Z,3.76
2024-03-24T04:18:14.074Z,3.76
2024-03-24T04:19:14.061Z,3.75
2024-03-24T04:20:14.043Z,3.76
2024-03-24T04:21:14.022Z,3.78
2024-03-24T04:22:14.021Z,3.80
2024-03-24T04:23:14.014Z,3.83
2024-03-24T04:24:14.012Z,3.80
2024-03-24T04:25:13.984Z,3.80
2024-03-24T04:26:13.974Z,3.84
2024-03-24T04:27:14.037Z,3.80
2024-03-24T04:28:13.965Z,3.80
2024-03-24T04:29:13.974Z,3.83
2024-03-24T04:30:13.950Z,3.83
2024-03-24T04:31:13.951Z,3.80
2024-03-24T04:32:13.934Z,3.80
2024-03-24T04:33:13.895Z,3.84
2024-03-24T04:34:13.911Z,3.80
2024-03-24T04:35:13.892Z,3.84
2024-03-24T04:36:13.870Z,3.80
2024-03-24T04:37:13.874Z,3.80
2024-03-24T04:38:13.845Z,3.83
2024-03-24T04:39:13.848Z,3.83
2024-03-24T04:40:13.843Z,3.84
2024-03-24T04:41:14.205Z,3.83
2024-03-24T04:42:13.816Z,3.84
2024-03-24T04:43:13.835Z,3.84
2024-03-24T04:44:13.790Z,3.87
2024-03-24T04:45:13.766Z,3.86
2024-03-24T04:46:13.773Z,3.86
2024-03-24T04:47:13.753Z,3.87
2024-03-24T04:48:13.752Z,3.88
2024-03-24T04:49:13.763Z,3.87
2024-03-24T04:50:13.718Z,3.88
2024-03-24T04:51:13.713Z,3.87
2024-03-24T04:52:13.746Z,3.88
2024-03-24T04:53:13.692Z,3.88
2024-03-24T04:54:13.687Z,3.88
2024-03-24T04:55:13.712Z,3.88
2024-03-24T04:56:13.663Z,3.87
2024-03-24T04:57:13.639Z,3.87
2024-03-24T04:58:13.684Z,3.86
2024-03-24T04:59:13.629Z,3.88
2024-03-24T05:00:13.627Z,3.88
2024-03-24T05:01:13.625Z,3.86
2024-03-24T05:02:13.595Z,3.90
2024-03-24T05:03:13.590Z,3.87
2024-03-24T05:04:13.600Z,3.90
2024-03-24T05:05:13.555Z,3.90
2024-03-24T05:06:13.561Z,3.90
2024-03-24T05:07:13.549Z,3.93
2024-03-24T05:08:13.539Z,3.90
2024-03-24T05:09:13.566Z,3.88
2024-03-24T05:10:13.570Z,3.90
2024-03-24T05:11:13.492Z,3.91
2024-03-24T05:12:13.502Z,3.90
2024-03-24T05:13:13.493Z,3.91
2024-03-24T05:14:13.468Z,3.97
2024-03-24T05:15:13.454Z,4.04
2024-03-24T05:16:13.486Z,4.04
2024-03-24T05:17:13.436Z,4.06
2024-03-24T05:18:13.425Z,4.11
2024-03-24T05:19:13.412Z,4.16
2024-03-24T05:20:13.413Z,4.18
2024-03-24T05:21:13.399Z,4.22
2024-03-24T05:22:13.391Z,4.24
2024-03-24T05:23:13.526Z,4.27
2024-03-24T05:24:13.369Z,4.32
2024-03-24T05:25:13.369Z,4.33
2024-03-24T05:26:13.354Z,4.30
2024-03-24T05:27:13.327Z,4.32
2024-03-24T05:28:13.330Z,4.34
2024-03-24T05:29:13.313Z,4.33
2024-03-24T05:30:13.312Z,4.36
2024-03-24T05:31:13.287Z,4.34
2024-03-24T05:32:13.291Z,4.34
2024-03-24T05:33:13.268Z,4.36
2024-03-24T05:34:13.264Z,4.37
2024-03-24T05:35:13.260Z,4.41
2024-03-24T05:36:13.240Z,4.41
2024-03-24T05:37:13.243Z,4.41
2024-03-24T05:38:13.226Z,4.44
2024-03-24T05:39:13.204Z,4.40
2024-03-24T05:40:13.609Z,4.41
2024-03-24T05:41:13.180Z,4.41
2024-03-24T05:42:13.172Z,4.45
2024-03-24T05:43:13.177Z,4.50
2024-03-24T05:44:13.160Z,4.52
2024-03-24T05:45:13.151Z,4.54
2024-03-24T05:46:13.159Z,4.52
2024-03-24T05:47:13.125Z,4.54
2024-03-24T05:48:13.112Z,4.52
2024-03-24T05:49:13.133Z,4.51
2024-03-24T05:50:13.095Z,4.52
2024-03-24T05:51:13.083Z,4.54
2024-03-24T05:52:13.093Z,4.54
2024-03-24T05:53:13.056Z,4.54
2024-03-24T05:54:13.055Z,4.60
2024-03-24T05:55:13.028Z,4.65
2024-03-24T05:56:13.024Z,4.63
2024-03-24T05:57:13.003Z,4.65
2024-03-24T05:58:13.036Z,4.63
2024-03-24T05:59:12.984Z,4.63
2024-03-24T06:00:12.988Z,4.67
2024-03-24T06:01:12.980Z,4.67
2024-03-24T06:02:12.962Z,4.67
2024-03-24T06:03:12.944Z,4.67
2024-03-24T06:04:12.946Z,4.70
2024-03-24T06:05:12.969Z,4.70
2024-03-24T06:06:12.925Z,4.77
2024-03-24T06:07:12.928Z,4.84
2024-03-24T06:08:12.894Z,4.85
2024-03-24T06:09:12.884Z,4.91
2024-03-24T06:10:12.883Z,4.97
2024-03-24T06:11:12.865Z,4.99
2024-03-24T06:12:12.864Z,5.00
2024-03-24T06:13:12.840Z,4.97
2024-03-24T06:14:12.848Z,4.96
2024-03-24T06:15:12.821Z,4.94
2024-03-24T06:16:12.806Z,4.88
2024-03-24T06:17:12.807Z,4.88
2024-03-24T06:18:12.875Z,4.86
2024-03-24T06:19:14.564Z,4.84
2024-03-24T06:20:12.775Z,4.78
2024-03-24T06:21:12.755Z,4.70
2024-03-24T06:22:12.747Z,4.67
2024-03-24T06:23:12.747Z,4.59
2024-03-24T06:24:12.766Z,4.41
2024-03-24T06:25:14.557Z,4.22
2024-03-24T06:26:12.714Z,4.02
2024-03-24T06:27:12.688Z,3.79
2024-03-24T06:28:12.698Z,3.60
2024-03-24T06:29:12.670Z,3.48
2024-03-24T06:30:12.679Z,3.33
2024-03-24T06:31:12.653Z,3.31
2024-03-24T06:32:12.649Z,3.29
2024-03-24T06:33:12.627Z,3.20
2024-03-24T06:34:12.628Z,3.11
2024-03-24T06:35:12.641Z,2.99
2024-03-24T06:36:12.613Z,2.90
2024-03-24T06:37:12.588Z,2.84
2024-03-24T06:38:12.580Z,2.79
2024-03-24T06:39:12.569Z,2.78
2024-03-24T06:40:12.566Z,2.71
2024-03-24T06:41:12.564Z,2.57
2024-03-24T06:42:12.550Z,2.49
2024-03-24T06:43:12.533Z,2.45
2024-03-24T06:44:12.519Z,2.43
2024-03-24T06:45:12.505Z,2.36
2024-03-24T06:46:12.518Z,2.35
2024-03-24T06:47:12.486Z,2.35
2024-03-24T06:48:12.510Z,2.34
2024-03-24T06:49:12.465Z,2.28
2024-03-24T06:50:12.465Z,2.25
2024-03-24T06:51:12.445Z,2.20
2024-03-24T06:52:12.442Z,2.17
2024-03-24T06:53:12.452Z,2.18
2024-03-24T06:54:12.441Z,2.21
2024-03-24T06:55:12.403Z,2.23
2024-03-24T06:56:12.446Z,2.21
2024-03-24T06:57:12.393Z,2.25
2024-03-24T06:58:12.373Z,2.27
2024-03-24T06:59:12.373Z,2.30
2024-03-24T07:00:12.363Z,2.36
2024-03-24T07:01:12.344Z,2.36
2024-03-24T07:02:12.347Z,2.36
2024-03-24T07:03:12.328Z,2.38
2024-03-24T07:04:12.317Z,2.35
2024-03-24T07:05:12.307Z,2.34
2024-03-24T07:06:12.317Z,2.35
2024-03-24T07:07:12.287Z,2.35
2024-03-24T07:08:12.295Z,2.36
2024-03-24T07:09:12.256Z,2.36
2024-03-24T07:10:12.265Z,2.35
2024-03-24T07:11:12.248Z,2.38
2024-03-24T07:12:12.253Z,2.39
2024-03-24T07:13:12.245Z,2.41
2024-03-24T07:14:12.227Z,2.45
2024-03-24T07:15:12.206Z,2.48
2024-03-24T07:16:12.211Z,2.53
2024-03-24T07:17:12.189Z,2.57
2024-03-24T07:18:12.182Z,2.63
2024-03-24T07:19:12.368Z,2.64
2024-03-24T07:20:12.173Z,2.64
2024-03-24T07:21:12.175Z,2.71
2024-03-24T07:22:12.155Z,2.74
2024-03-24T07:23:12.168Z,2.75
2024-03-24T07:24:12.121Z,2.78
2024-03-24T07:25:12.457Z,2.82
2024-03-24T07:26:12.112Z,2.87
2024-03-24T07:27:12.087Z,2.90
2024-03-24T07:28:12.074Z,2.84
2024-03-24T07:29:12.076Z,2.85
2024-03-24T07:30:12.089Z,2.84
2024-03-24T07:31:12.059Z,2.85
2024-03-24T07:32:12.042Z,2.84
2024-03-24T07:33:12.027Z,2.82
2024-03-24T07:34:12.013Z,2.87
2024-03-24T07:35:12.003Z,2.87
2024-03-24T07:36:11.996Z,2.82
2024-03-24T07:37:11.982Z,2.84
2024-03-24T07:38:12.782Z,2.90
2024-03-24T07:39:11.973Z,2.84
2024-03-24T07:40:11.949Z,2.81
2024-03-24T07:41:11.961Z,2.87
2024-03-24T07:42:11.984Z,2.95
2024-03-24T07:43:11.931Z,3.03
2024-03-24T07:44:11.909Z,2.97
2024-03-24T07:45:11.904Z,3.06
2024-03-24T07:46:11.901Z,3.13
2024-03-24T07:47:11.890Z,3.17
2024-03-24T07:48:12.586Z,3.26
2024-03-24T07:49:11.868Z,3.24
2024-03-24T07:50:11.844Z,3.24
2024-03-24T07:51:12.015Z,3.31
2024-03-24T07:52:12.695Z,3.35
2024-03-24T07:53:11.861Z,3.43
2024-03-24T07:54:11.805Z,3.39
2024-03-24T07:55:11.811Z,3.36
2024-03-24T07:56:12.607Z,3.39
2024-03-24T07:57:11.807Z,3.45
2024-03-24T07:58:11.765Z,3.54
2024-03-24T07:59:11.757Z,3.61
2024-03-24T08:00:12.051Z,3.72
2024-03-24T08:01:11.743Z,3.83
2024-03-24T08:02:11.722Z,4.00
2024-03-24T08:03:11.724Z,4.11
2024-03-24T08:04:11.709Z,4.24
2024-03-24T08:05:11.706Z,4.32
2024-03-24T08:06:11.689Z,4.32
2024-03-24T08:07:11.687Z,4.40
2024-03-24T08:08:11.661Z,4.51
2024-03-24T08:09:11.675Z,4.55
2024-03-24T08:10:11.643Z,4.55
2024-03-24T08:11:11.649Z,4.55
2024-03-24T08:12:11.610Z,4.60
2024-03-24T08:13:11.626Z,4.59
2024-03-24T08:14:11.591Z,4.52
2024-03-24T08:15:12.433Z,4.59
2024-03-24T08:16:11.577Z,4.55
2024-03-24T08:17:11.574Z,4.59
2024-03-24T08:18:11.555Z,4.65
2024-03-24T08:19:11.587Z,4.66
2024-03-24T08:20:11.543Z,4.69
2024-03-24T08:21:11.538Z,4.70
2024-03-24T08:22:11.517Z,4.77
2024-03-24T08:23:11.516Z,4.73
2024-03-24T08:24:11.491Z,4.80
2024-03-24T08:25:11.495Z,4.86
2024-03-24T08:26:11.466Z,4.99
2024-03-24T08:27:11.472Z,5.22
2024-03-24T08:28:11.476Z,5.33
2024-03-24T08:29:11.450Z,5.43
2024-03-24T08:30:11.450Z,5.40
2024-03-24T08:31:11.433Z,5.54
2024-03-24T08:32:11.989Z,5.46
2024-03-24T08:33:11.411Z,5.24
2024-03-24T08:34:11.403Z,5.28
2024-03-24T08:35:11.403Z,5.36
2024-03-24T08:36:11.387Z,5.40
2024-03-24T08:37:11.364Z,5.61
2024-03-24T08:38:11.377Z,5.76
2024-03-24T08:39:11.371Z,6.00
2024-03-24T08:40:11.364Z,6.22
2024-03-24T08:41:11.384Z,6.37
2024-03-24T08:42:11.333Z,6.36
2024-03-24T08:43:11.373Z,6.27
2024-03-24T08:44:11.323Z,6.09
2024-03-24T08:45:11.337Z,6.22
2024-03-24T08:46:11.511Z,6.30
2024-03-24T08:47:11.329Z,6.12
2024-03-24T08:48:11.245Z,5.97
2024-03-24T08:49:11.243Z,5.93
2024-03-24T08:50:11.218Z,5.96
2024-03-24T08:51:11.254Z,5.90
2024-03-24T08:52:11.206Z,5.79
2024-03-24T08:53:11.214Z,5.60
2024-03-24T08:54:11.212Z,5.68
2024-03-24T08:55:11.185Z,5.72
2024-03-24T08:56:11.172Z,5.83
2024-03-24T08:57:11.177Z,5.89
2024-03-24T08:58:11.149Z,6.12
2024-03-24T08:59:11.147Z,6.27
2024-03-24T09:00:11.123Z,6.56
2024-03-24T09:01:11.118Z,6.79
2024-03-24T09:02:11.112Z,7.09
2024-03-24T09:03:11.085Z,7.24
2024-03-24T09:04:11.068Z,7.40
2024-03-24T09:05:11.072Z,7.68
2024-03-24T09:06:11.467Z,7.95
2024-03-24T09:07:11.055Z,7.69
2024-03-24T09:08:11.036Z,7.57
2024-03-24T09:09:11.055Z,7.43
2024-03-24T09:10:11.159Z,7.32
2024-03-24T09:11:11.012Z,7.40
2024-03-24T09:12:10.984Z,7.50
2024-03-24T09:13:10.997Z,7.69
2024-03-24T09:14:10.975Z,7.79
2024-03-24T09:15:10.959Z,8.02
2024-03-24T09:16:10.956Z,7.83
2024-03-24T09:17:11.067Z,7.83
2024-03-24T09:18:10.926Z,7.92
2024-03-24T09:19:10.918Z,7.82
2024-03-24T09:20:10.902Z,7.57
2024-03-24T09:21:10.916Z,7.17
2024-03-24T09:22:10.889Z,7.09
2024-03-24T09:23:10.890Z,7.34
2024-03-24T09:24:10.870Z,7.46
2024-03-24T09:25:10.855Z,7.40
2024-03-24T09:26:10.845Z,7.80
2024-03-24T09:27:11.262Z,8.23
2024-03-24T09:28:10.830Z,8.56
2024-03-24T09:29:10.850Z,8.92
2024-03-24T09:30:10.809Z,8.94
2024-03-24T09:31:10.794Z,8.80
2024-03-24T09:32:11.162Z,8.71
2024-03-24T09:33:10.775Z,8.70
2024-03-24T09:34:10.767Z,8.58
2024-03-24T09:35:13.495Z,8.43
2024-03-24T09:36:10.742Z,8.10
2024-03-24T09:37:10.747Z,7.67
2024-03-24T09:38:10.714Z,7.37
2024-03-24T09:39:10.734Z,7.16
2024-03-24T09:40:10.700Z,6.88
2024-03-24T09:41:10.705Z,6.40
2024-03-24T09:42:10.671Z,5.65
2024-03-24T09:43:10.672Z,5.18
2024-03-24T09:44:10.656Z,4.42
2024-03-24T09:45:10.665Z,3.97
2024-03-24T09:46:10.634Z,3.61
2024-03-24T09:47:10.647Z,3.32
2024-03-24T09:48:10.618Z,3.00
2024-03-24T09:49:10.616Z,2.99
2024-03-24T09:50:10.610Z,3.10
2024-03-24T09:51:10.602Z,3.26
2024-03-24T09:52:10.619Z,3.54
2024-03-24T09:53:10.673Z,3.69
2024-03-24T09:54:10.601Z,3.91
2024-03-24T09:55:10.638Z,4.06
2024-03-24T09:56:10.893Z,4.15
2024-03-24T09:57:10.529Z,4.30
2024-03-24T09:58:12.237Z,4.45
2024-03-24T09:59:10.712Z,4.34
2024-03-24T10:00:10.495Z,4.51
2024-03-24T10:01:10.519Z,4.52
2024-03-24T10:02:10.469Z,4.70
2024-03-24T10:03:10.463Z,5.06
2024-03-24T10:04:10.450Z,5.25
2024-03-24T10:05:10.466Z,5.38
2024-03-24T10:06:10.428Z,5.63
2024-03-24T10:07:10.440Z,5.86
2024-03-24T10:08:10.406Z,6.30
2024-03-24T10:09:10.406Z,6.58
2024-03-24T10:10:10.602Z,6.61
2024-03-24T10:11:10.396Z,7.02
2024-03-24T10:12:10.362Z,7.35
2024-03-24T10:13:10.375Z,7.58
2024-03-24T10:14:10.350Z,8.08
2024-03-24T10:15:10.355Z,8.79
2024-03-24T10:16:10.360Z,9.40
2024-03-24T10:17:11.347Z,9.15
2024-03-24T10:18:10.303Z,9.14
2024-03-24T10:19:10.306Z,9.01
2024-03-24T10:20:10.296Z,9.04
2024-03-24T10:21:10.269Z,9.20
2024-03-24T10:22:10.263Z,9.18
2024-03-24T10:23:10.362Z,9.15
2024-03-24T10:24:10.258Z,9.24
2024-03-24T10:25:10.225Z,9.13
2024-03-24T10:26:10.220Z,8.98
2024-03-24T10:27:10.212Z,8.58
2024-03-24T10:28:10.208Z,8.34
2024-03-24T10:29:10.204Z,8.28
2024-03-24T10:30:10.254Z,7.93
2024-03-24T10:31:10.177Z,7.83
2024-03-24T10:32:17.022Z,7.77
2024-03-24T10:33:11.134Z,7.86
2024-03-24T10:34:10.125Z,7.93
2024-03-24T10:35:10.157Z,7.82
2024-03-24T10:36:10.106Z,7.63
2024-03-24T10:37:10.991Z,7.53
2024-03-24T10:38:10.090Z,7.32
2024-03-24T10:39:10.089Z,7.37
2024-03-24T10:40:10.058Z,7.45
2024-03-24T10:41:10.082Z,7.43
2024-03-24T10:42:10.049Z,7.45
2024-03-24T10:43:10.036Z,7.52
2024-03-24T10:44:10.030Z,7.49
2024-03-24T10:45:10.160Z,7.53
2024-03-24T10:46:10.016Z,7.60
2024-03-24T10:47:09.988Z,7.52
2024-03-24T10:48:09.975Z,7.45
2024-03-24T10:49:09.976Z,7.32
2024-03-24T10:50:09.952Z,7.40
2024-03-24T10:51:09.946Z,7.63
2024-03-24T10:52:09.946Z,7.80
2024-03-24T10:53:09.926Z,8.07
2024-03-24T10:54:09.936Z,7.89
2024-03-24T10:55:09.915Z,7.85
2024-03-24T10:56:09.898Z,7.85
2024-03-24T10:57:09.904Z,7.75
2024-03-24T10:58:09.885Z,7.90
2024-03-24T10:59:12.488Z,8.04
2024-03-24T11:00:09.868Z,7.79
2024-03-24T11:01:09.853Z,7.71
2024-03-24T11:02:09.837Z,7.61
2024-03-24T11:03:09.830Z,7.55
2024-03-24T11:04:09.838Z,7.49
2024-03-24T11:05:09.822Z,7.50
2024-03-24T11:06:11.437Z,7.57
2024-03-24T11:07:09.784Z,7.58
2024-03-24T11:08:09.772Z,7.61
2024-03-24T11:09:09.765Z,7.63
2024-03-24T11:10:09.749Z,7.68
2024-03-24T11:11:09.749Z,7.75
2024-03-24T11:12:09.739Z,7.75
2024-03-24T11:13:09.726Z,8.07
2024-03-24T11:14:09.713Z,8.81
2024-03-24T11:15:09.707Z,9.13
2024-03-24T11:16:09.721Z,8.95
2024-03-24T11:17:09.687Z,8.48
2024-03-24T11:18:09.673Z,8.05
2024-03-24T11:19:09.671Z,7.86
2024-03-24T11:20:09.642Z,7.74
2024-03-24T11:21:09.649Z,7.72
2024-03-24T11:22:09.628Z,7.69
2024-03-24T11:23:09.617Z,7.40
2024-03-24T11:24:09.607Z,7.31
2024-03-24T11:25:09.608Z,7.10
2024-03-24T11:26:09.587Z,7.15
2024-03-24T11:27:09.582Z,7.35
2024-03-24T11:28:09.555Z,7.60
2024-03-24T11:29:09.554Z,7.82
2024-03-24T11:30:09.537Z,8.16
2024-03-24T11:31:09.579Z,8.52
2024-03-24T11:32:09.534Z,8.86
2024-03-24T11:33:09.506Z,9.08
2024-03-24T11:34:09.517Z,8.91
2024-03-24T11:35:09.501Z,8.95
2024-03-24T11:36:09.481Z,9.17
2024-03-24T11:37:09.472Z,9.29
2024-03-24T11:38:09.469Z,9.51
2024-03-24T11:39:09.470Z,9.93
2024-03-24T11:40:09.437Z,9.99
2024-03-24T11:41:09.430Z,9.96
2024-03-24T11:42:09.421Z,10.01
2024-03-24T11:43:09.398Z,9.87
2024-03-24T11:44:09.505Z,9.78
2024-03-24T11:45:09.383Z,9.76
2024-03-24T11:46:09.379Z,9.46
2024-03-24T11:47:09.359Z,8.81
2024-03-24T11:48:09.365Z,8.38
2024-03-24T11:49:09.379Z,8.05
2024-03-24T11:50:09.342Z,7.82
2024-03-24T11:51:09.328Z,7.45
2024-03-24T11:52:09.312Z,7.64
2024-03-24T11:53:09.445Z,8.15
2024-03-24T11:54:09.292Z,8.80
2024-03-24T11:55:09.277Z,9.42
2024-03-24T11:56:09.278Z,10.12
2024-03-24T11:57:09.255Z,10.68
2024-03-24T11:58:09.245Z,10.99
2024-03-24T11:59:09.286Z,10.96
2024-03-24T12:00:09.220Z,10.47
2024-03-24T12:01:09.231Z,10.02
2024-03-24T12:02:09.234Z,9.53
2024-03-24T12:03:09.190Z,8.89
2024-03-24T12:04:09.206Z,8.41
2024-03-24T12:05:09.197Z,7.98
2024-03-24T12:06:09.178Z,7.79
2024-03-24T12:07:09.147Z,7.68
2024-03-24T12:08:09.156Z,7.67
2024-03-24T12:09:09.154Z,7.61
2024-03-24T12:10:09.154Z,7.53
2024-03-24T12:11:09.115Z,7.23
2024-03-24T12:12:09.173Z,7.13
2024-03-24T12:13:09.079Z,7.07
2024-03-24T12:14:09.108Z,6.88
2024-03-24T12:15:09.074Z,6.58
2024-03-24T12:16:09.079Z,6.34
2024-03-24T12:17:11.310Z,6.11
2024-03-24T12:18:09.040Z,5.94
2024-03-24T12:19:09.044Z,5.86
2024-03-24T12:20:09.016Z,5.94
2024-03-24T12:21:09.014Z,5.99
2024-03-24T12:22:08.997Z,5.96
2024-03-24T12:23:11.191Z,5.91
2024-03-24T12:24:08.973Z,5.97
2024-03-24T12:25:08.985Z,6.00
2024-03-24T12:26:08.961Z,6.06
2024-03-24T12:27:08.946Z,6.21
2024-03-24T12:28:08.928Z,6.34
2024-03-24T12:29:08.915Z,6.43
2024-03-24T12:30:08.928Z,6.49
2024-03-24T12:31:08.893Z,6.67
2024-03-24T12:32:08.909Z,6.77
2024-03-24T12:33:08.878Z,6.80
2024-03-24T12:34:08.869Z,6.88
2024-03-24T12:35:08.848Z,6.85
2024-03-24T12:36:08.848Z,6.91
2024-03-24T12:37:08.824Z,6.85
2024-03-24T12:38:08.833Z,6.81
2024-03-24T12:39:08.814Z,6.66
2024-03-24T12:40:08.807Z,6.67
2024-03-24T12:41:08.782Z,6.71
2024-03-24T12:42:08.775Z,6.73
2024-03-24T12:43:08.766Z,6.88
2024-03-24T12:44:08.770Z,6.94
2024-03-24T12:45:08.748Z,7.20
2024-03-24T12:46:08.740Z,7.37
2024-03-24T12:47:08.721Z,7.48
2024-03-24T12:48:08.737Z,7.58
2024-03-24T12:49:08.701Z,7.68
2024-03-24T12:51:08.693Z,7.45
2024-03-24T12:52:08.677Z,7.31
2024-03-24T12:53:08.934Z,7.87
2024-03-24T12:54:08.659Z,8.19
2024-03-24T12:55:08.635Z,9.75
2024-03-24T12:56:08.633Z,10.94
2024-03-24T12:57:08.617Z,11.42
2024-03-24T12:58:08.630Z,11.25
2024-03-24T12:59:08.613Z,10.81
2024-03-24T13:00:08.595Z,9.93
2024-03-24T13:01:08.582Z,9.31
2024-03-24T13:02:08.890Z,8.96
2024-03-24T13:03:08.577Z,8.91
2024-03-24T13:04:11.044Z,9.48
2024-03-24T13:05:08.540Z,10.30
2024-03-24T13:06:08.529Z,10.56
2024-03-24T13:07:08.512Z,11.42
2024-03-24T13:08:08.524Z,12.70
2024-03-24T13:09:08.497Z,12.83
2024-03-24T13:10:08.496Z,12.38
2024-03-24T13:11:15.605Z,13.89
2024-03-24T13:12:09.472Z,14.39
2024-03-24T13:13:08.452Z,13.71
2024-03-24T13:14:08.449Z,12.72
2024-03-24T13:15:08.430Z,12.24
2024-03-24T13:16:08.434Z,12.45
2024-03-24T13:17:08.407Z,12.67
2024-03-24T13:18:08.488Z,11.58